sensor_id;sensor_type;location;lat;lon;timestamp;temperature;humidity
780;DHT22;373;49.342;8.146;2023-08-17T00:02:20;22.70;1.00
780;DHT22;373;49.342;8.146;2023-08-17T00:04:47;22.70;1.00
780;DHT22;373;49.342;8.146;2023-08-17T00:07:14;22.60;1.00
780;DHT22;373;49.342;8.146;2023-08-17T00:09:43;22.50;1.00
780;DHT22;373;49.342;8.146;2023-08-17T00:12:10;22.50;1.00
780;DHT22;373;49.342;8.146;2023-08-17T00:14:37;22.40;1.00
780;DHT22;373;49.342;8.146;2023-08-17T00:17:04;22.20;24.30
780;DHT22;373;49.342;8.146;2023-08-17T00:19:31;22.10;37.90
780;DHT22;373;49.342;8.146;2023-08-17T00:21:58;21.80;71.20
780;DHT22;373;49.342;8.146;2023-08-17T00:24:25;21.70;93.20
780;DHT22;373;49.342;8.146;2023-08-17T00:26:53;21.50;99.90
780;DHT22;373;49.342;8.146;2023-08-17T00:29:20;21.40;99.90
780;DHT22;373;49.342;8.146;2023-08-17T00:31:47;21.30;99.90
780;DHT22;373;49.342;8.146;2023-08-17T00:34:14;21.30;99.90
780;DHT22;373;49.342;8.146;2023-08-17T00:36:41;21.50;99.90
780;DHT22;373;49.342;8.146;2023-08-17T00:39:08;21.70;99.90
780;DHT22;373;49.342;8.146;2023-08-17T00:41:35;21.80;55.20
780;DHT22;373;49.342;8.146;2023-08-17T00:44:04;21.60;90.00
780;DHT22;373;49.342;8.146;2023-08-17T00:46:32;21.50;91.80
780;DHT22;373;49.342;8.146;2023-08-17T00:48:59;21.30;99.90
780;DHT22;373;49.342;8.146;2023-08-17T00:51:28;21.30;99.90
780;DHT22;373;49.342;8.146;2023-08-17T00:53:58;21.30;99.90
780;DHT22;373;49.342;8.146;2023-08-17T00:56:26;21.30;99.90
780;DHT22;373;49.342;8.146;2023-08-17T00:58:53;21.20;99.90
780;DHT22;373;49.342;8.146;2023-08-17T01:01:22;21.10;99.90
780;DHT22;373;49.342;8.146;2023-08-17T01:03:50;21.10;99.90
780;DHT22;373;49.342;8.146;2023-08-17T01:06:18;21.00;99.90
780;DHT22;373;49.342;8.146;2023-08-17T01:08:45;21.10;99.90
780;DHT22;373;49.342;8.146;2023-08-17T01:11:20;21.10;99.90
780;DHT22;373;49.342;8.146;2023-08-17T01:13:55;20.90;99.90
780;DHT22;373;49.342;8.146;2023-08-17T01:16:29;21.00;99.90
780;DHT22;373;49.342;8.146;2023-08-17T01:18:58;21.00;99.90
780;DHT22;373;49.342;8.146;2023-08-17T01:21:29;20.80;99.90
780;DHT22;373;49.342;8.146;2023-08-17T01:24:03;20.80;99.90
780;DHT22;373;49.342;8.146;2023-08-17T01:26:30;20.70;99.90
780;DHT22;373;49.342;8.146;2023-08-17T01:28:57;20.70;99.90
780;DHT22;373;49.342;8.146;2023-08-17T01:31:27;20.70;99.90
780;DHT22;373;49.342;8.146;2023-08-17T01:34:01;20.50;99.90
780;DHT22;373;49.342;8.146;2023-08-17T01:36:32;20.60;99.90
780;DHT22;373;49.342;8.146;2023-08-17T01:39:02;20.80;99.90
780;DHT22;373;49.342;8.146;2023-08-17T01:41:32;20.60;99.90
780;DHT22;373;49.342;8.146;2023-08-17T01:43:59;20.80;99.90
780;DHT22;373;49.342;8.146;2023-08-17T01:46:30;20.60;99.90
780;DHT22;373;49.342;8.146;2023-08-17T01:48:58;20.60;99.90
780;DHT22;373;49.342;8.146;2023-08-17T01:51:25;20.80;99.90
780;DHT22;373;49.342;8.146;2023-08-17T01:53:52;20.60;99.90
780;DHT22;373;49.342;8.146;2023-08-17T01:56:21;20.60;99.90
780;DHT22;373;49.342;8.146;2023-08-17T01:58:48;20.70;99.90
780;DHT22;373;49.342;8.146;2023-08-17T02:01:15;20.70;99.90
780;DHT22;373;49.342;8.146;2023-08-17T02:03:42;20.90;99.90
780;DHT22;373;49.342;8.146;2023-08-17T02:06:09;21.00;80.90
780;DHT22;373;49.342;8.146;2023-08-17T02:08:37;21.00;53.50
780;DHT22;373;49.342;8.146;2023-08-17T02:11:04;20.90;81.40
780;DHT22;373;49.342;8.146;2023-08-17T02:13:33;20.80;92.90
780;DHT22;373;49.342;8.146;2023-08-17T02:16:03;20.60;99.90
780;DHT22;373;49.342;8.146;2023-08-17T02:18:30;20.60;99.90
780;DHT22;373;49.342;8.146;2023-08-17T02:20:59;20.70;99.90
780;DHT22;373;49.342;8.146;2023-08-17T02:23:26;20.80;75.60
780;DHT22;373;49.342;8.146;2023-08-17T02:25:53;20.70;98.30
780;DHT22;373;49.342;8.146;2023-08-17T02:28:21;20.70;96.60
780;DHT22;373;49.342;8.146;2023-08-17T02:30:54;20.80;92.20
780;DHT22;373;49.342;8.146;2023-08-17T02:33:23;20.60;92.80
780;DHT22;373;49.342;8.146;2023-08-17T02:35:50;20.30;99.90
780;DHT22;373;49.342;8.146;2023-08-17T02:38:17;20.30;99.90
780;DHT22;373;49.342;8.146;2023-08-17T02:40:44;20.20;99.90
780;DHT22;373;49.342;8.146;2023-08-17T02:43:11;20.20;99.90
780;DHT22;373;49.342;8.146;2023-08-17T02:45:38;20.10;99.90
780;DHT22;373;49.342;8.146;2023-08-17T02:48:10;20.30;99.90
780;DHT22;373;49.342;8.146;2023-08-17T02:50:38;20.40;99.90
780;DHT22;373;49.342;8.146;2023-08-17T02:53:05;20.50;99.90
780;DHT22;373;49.342;8.146;2023-08-17T02:55:32;20.60;93.00
780;DHT22;373;49.342;8.146;2023-08-17T02:57:59;20.80;64.60
780;DHT22;373;49.342;8.146;2023-08-17T03:00:26;21.00;35.50
780;DHT22;373;49.342;8.146;2023-08-17T03:02:53;21.10;2.50
780;DHT22;373;49.342;8.146;2023-08-17T03:05:22;21.20;1.00
780;DHT22;373;49.342;8.146;2023-08-17T03:07:49;21.10;10.80
780;DHT22;373;49.342;8.146;2023-08-17T03:10:16;21.10;1.00
780;DHT22;373;49.342;8.146;2023-08-17T03:12:45;21.30;1.00
780;DHT22;373;49.342;8.146;2023-08-17T03:15:12;21.10;1.00
780;DHT22;373;49.342;8.146;2023-08-17T03:17:39;21.10;1.00
780;DHT22;373;49.342;8.146;2023-08-17T03:20:07;21.10;1.00
780;DHT22;373;49.342;8.146;2023-08-17T03:22:36;21.10;1.00
780;DHT22;373;49.342;8.146;2023-08-17T03:25:04;21.00;13.60
780;DHT22;373;49.342;8.146;2023-08-17T03:27:32;21.00;9.70
780;DHT22;373;49.342;8.146;2023-08-17T03:29:59;21.00;1.00
780;DHT22;373;49.342;8.146;2023-08-17T03:32:26;20.80;12.60
780;DHT22;373;49.342;8.146;2023-08-17T03:34:53;21.00;19.90
780;DHT22;373;49.342;8.146;2023-08-17T03:37:21;21.10;1.00
780;DHT22;373;49.342;8.146;2023-08-17T03:39:49;21.10;1.00
780;DHT22;373;49.342;8.146;2023-08-17T03:42:16;21.30;1.00
780;DHT22;373;49.342;8.146;2023-08-17T03:44:43;21.30;1.00
780;DHT22;373;49.342;8.146;2023-08-17T03:47:10;21.30;1.00
780;DHT22;373;49.342;8.146;2023-08-17T03:49:38;21.40;1.00
780;DHT22;373;49.342;8.146;2023-08-17T03:52:05;21.50;1.00
780;DHT22;373;49.342;8.146;2023-08-17T03:54:33;21.40;1.00
780;DHT22;373;49.342;8.146;2023-08-17T03:57:01;21.50;1.00
780;DHT22;373;49.342;8.146;2023-08-17T03:59:28;21.60;1.00
780;DHT22;373;49.342;8.146;2023-08-17T04:01:55;21.70;1.00
780;DHT22;373;49.342;8.146;2023-08-17T04:04:22;21.70;1.00
780;DHT22;373;49.342;8.146;2023-08-17T04:06:49;21.80;1.00
780;DHT22;373;49.342;8.146;2023-08-17T04:09:16;21.80;1.00
780;DHT22;373;49.342;8.146;2023-08-17T04:11:44;21.80;1.00
780;DHT22;373;49.342;8.146;2023-08-17T04:14:13;22.00;1.00
780;DHT22;373;49.342;8.146;2023-08-17T04:16:40;22.00;1.00
780;DHT22;373;49.342;8.146;2023-08-17T04:19:07;22.00;1.00
780;DHT22;373;49.342;8.146;2023-08-17T04:21:34;21.90;1.00
780;DHT22;373;49.342;8.146;2023-08-17T04:24:03;21.80;1.00
780;DHT22;373;49.342;8.146;2023-08-17T04:26:30;21.70;1.00
780;DHT22;373;49.342;8.146;2023-08-17T04:28:57;21.70;1.00
780;DHT22;373;49.342;8.146;2023-08-17T04:31:25;21.70;1.00
780;DHT22;373;49.342;8.146;2023-08-17T04:33:58;21.70;1.00
780;DHT22;373;49.342;8.146;2023-08-17T04:36:26;21.70;1.00
780;DHT22;373;49.342;8.146;2023-08-17T04:38:54;21.60;1.00
780;DHT22;373;49.342;8.146;2023-08-17T04:41:21;21.80;1.00
780;DHT22;373;49.342;8.146;2023-08-17T04:43:50;21.70;1.00
780;DHT22;373;49.342;8.146;2023-08-17T04:46:17;21.60;1.00
780;DHT22;373;49.342;8.146;2023-08-17T04:48:45;21.40;1.00
780;DHT22;373;49.342;8.146;2023-08-17T04:51:13;21.50;1.00
780;DHT22;373;49.342;8.146;2023-08-17T04:53:40;21.60;1.00
780;DHT22;373;49.342;8.146;2023-08-17T04:56:08;21.60;1.00
780;DHT22;373;49.342;8.146;2023-08-17T04:58:36;21.60;1.00
780;DHT22;373;49.342;8.146;2023-08-17T05:01:03;21.90;1.00
780;DHT22;373;49.342;8.146;2023-08-17T05:03:30;22.00;1.00
780;DHT22;373;49.342;8.146;2023-08-17T05:05:59;22.10;1.00
780;DHT22;373;49.342;8.146;2023-08-17T05:08:27;22.30;1.00
780;DHT22;373;49.342;8.146;2023-08-17T05:10:55;22.60;1.00
780;DHT22;373;49.342;8.146;2023-08-17T05:13:24;22.90;99.90
780;DHT22;373;49.342;8.146;2023-08-17T05:15:51;22.80;99.90
780;DHT22;373;49.342;8.146;2023-08-17T05:18:21;23.10;99.90
780;DHT22;373;49.342;8.146;2023-08-17T05:20:48;23.30;99.90
780;DHT22;373;49.342;8.146;2023-08-17T05:23:16;23.30;99.40
780;DHT22;373;49.342;8.146;2023-08-17T05:25:46;23.40;1.00
780;DHT22;373;49.342;8.146;2023-08-17T05:28:14;23.10;99.90
780;DHT22;373;49.342;8.146;2023-08-17T05:30:41;23.10;99.90
780;DHT22;373;49.342;8.146;2023-08-17T05:33:08;23.30;99.90
780;DHT22;373;49.342;8.146;2023-08-17T05:35:35;23.50;99.90
780;DHT22;373;49.342;8.146;2023-08-17T05:38:02;23.70;90.00
780;DHT22;373;49.342;8.146;2023-08-17T05:40:32;23.60;99.90
780;DHT22;373;49.342;8.146;2023-08-17T05:42:59;23.80;1.00
780;DHT22;373;49.342;8.146;2023-08-17T05:45:26;23.90;99.90
780;DHT22;373;49.342;8.146;2023-08-17T05:47:53;23.90;1.00
780;DHT22;373;49.342;8.146;2023-08-17T05:50:20;24.10;99.90
780;DHT22;373;49.342;8.146;2023-08-17T05:52:47;24.10;99.90
780;DHT22;373;49.342;8.146;2023-08-17T05:55:15;24.10;1.00
780;DHT22;373;49.342;8.146;2023-08-17T05:57:47;24.20;99.90
780;DHT22;373;49.342;8.146;2023-08-17T06:00:14;24.20;1.00
780;DHT22;373;49.342;8.146;2023-08-17T06:02:42;23.90;1.00
780;DHT22;373;49.342;8.146;2023-08-17T06:05:09;23.20;99.90
780;DHT22;373;49.342;8.146;2023-08-17T06:07:36;23.40;99.90
780;DHT22;373;49.342;8.146;2023-08-17T06:10:04;23.10;99.90
780;DHT22;373;49.342;8.146;2023-08-17T06:12:32;23.30;99.90
780;DHT22;373;49.342;8.146;2023-08-17T06:15:01;23.50;1.00
780;DHT22;373;49.342;8.146;2023-08-17T06:17:29;23.90;1.00
780;DHT22;373;49.342;8.146;2023-08-17T06:19:56;23.80;1.00
780;DHT22;373;49.342;8.146;2023-08-17T06:22:23;23.60;99.90
780;DHT22;373;49.342;8.146;2023-08-17T06:24:50;23.60;99.90
780;DHT22;373;49.342;8.146;2023-08-17T06:27:17;23.10;1.00
780;DHT22;373;49.342;8.146;2023-08-17T06:29:44;23.00;1.00
780;DHT22;373;49.342;8.146;2023-08-17T06:32:12;23.00;1.00
780;DHT22;373;49.342;8.146;2023-08-17T06:34:39;22.80;1.00
780;DHT22;373;49.342;8.146;2023-08-17T06:37:08;22.70;1.00
780;DHT22;373;49.342;8.146;2023-08-17T06:39:35;22.50;1.00
780;DHT22;373;49.342;8.146;2023-08-17T06:42:02;22.50;1.00
780;DHT22;373;49.342;8.146;2023-08-17T06:44:29;22.70;1.00
780;DHT22;373;49.342;8.146;2023-08-17T06:46:57;22.20;1.00
780;DHT22;373;49.342;8.146;2023-08-17T06:49:26;22.00;1.00
780;DHT22;373;49.342;8.146;2023-08-17T06:51:53;22.20;1.00
780;DHT22;373;49.342;8.146;2023-08-17T06:54:20;22.10;1.00
780;DHT22;373;49.342;8.146;2023-08-17T06:56:47;21.90;1.00
780;DHT22;373;49.342;8.146;2023-08-17T06:59:14;22.10;1.00
780;DHT22;373;49.342;8.146;2023-08-17T07:01:41;22.00;1.00
780;DHT22;373;49.342;8.146;2023-08-17T07:04:08;21.90;1.00
780;DHT22;373;49.342;8.146;2023-08-17T07:06:36;22.10;1.00
780;DHT22;373;49.342;8.146;2023-08-17T07:09:04;22.00;1.00
780;DHT22;373;49.342;8.146;2023-08-17T07:11:31;21.70;5.80
780;DHT22;373;49.342;8.146;2023-08-17T07:13:58;21.40;32.80
780;DHT22;373;49.342;8.146;2023-08-17T07:16:25;21.30;48.90
780;DHT22;373;49.342;8.146;2023-08-17T07:18:53;21.30;88.00
780;DHT22;373;49.342;8.146;2023-08-17T07:21:20;21.70;27.10
780;DHT22;373;49.342;8.146;2023-08-17T07:23:50;22.10;1.00
780;DHT22;373;49.342;8.146;2023-08-17T07:26:17;22.20;1.00
780;DHT22;373;49.342;8.146;2023-08-17T07:28:44;22.20;1.00
780;DHT22;373;49.342;8.146;2023-08-17T07:31:11;22.50;1.00
780;DHT22;373;49.342;8.146;2023-08-17T07:33:39;22.60;1.00
780;DHT22;373;49.342;8.146;2023-08-17T07:36:06;22.60;1.00
780;DHT22;373;49.342;8.146;2023-08-17T07:38:33;22.70;1.00
780;DHT22;373;49.342;8.146;2023-08-17T07:41:01;22.70;1.00
780;DHT22;373;49.342;8.146;2023-08-17T07:43:28;23.10;1.00
780;DHT22;373;49.342;8.146;2023-08-17T07:45:56;23.50;1.00
780;DHT22;373;49.342;8.146;2023-08-17T07:48:23;23.50;1.00
780;DHT22;373;49.342;8.146;2023-08-17T07:50:50;23.10;1.00
780;DHT22;373;49.342;8.146;2023-08-17T07:53:18;23.20;1.00
780;DHT22;373;49.342;8.146;2023-08-17T07:55:45;23.00;1.00
780;DHT22;373;49.342;8.146;2023-08-17T07:58:13;23.10;1.00
780;DHT22;373;49.342;8.146;2023-08-17T08:00:40;23.50;1.00
780;DHT22;373;49.342;8.146;2023-08-17T08:03:07;23.70;1.00
780;DHT22;373;49.342;8.146;2023-08-17T08:05:34;24.00;99.90
780;DHT22;373;49.342;8.146;2023-08-17T08:08:02;24.10;1.00
780;DHT22;373;49.342;8.146;2023-08-17T08:10:29;24.20;99.90
780;DHT22;373;49.342;8.146;2023-08-17T08:12:56;24.30;99.90
780;DHT22;373;49.342;8.146;2023-08-17T08:15:24;24.30;99.90
780;DHT22;373;49.342;8.146;2023-08-17T08:17:51;24.00;99.90
780;DHT22;373;49.342;8.146;2023-08-17T08:20:19;24.10;1.00
780;DHT22;373;49.342;8.146;2023-08-17T08:22:47;24.30;99.90
780;DHT22;373;49.342;8.146;2023-08-17T08:25:14;23.70;1.00
780;DHT22;373;49.342;8.146;2023-08-17T08:27:41;24.30;99.90
780;DHT22;373;49.342;8.146;2023-08-17T08:30:08;24.50;34.00
780;DHT22;373;49.342;8.146;2023-08-17T08:32:36;25.10;1.00
780;DHT22;373;49.342;8.146;2023-08-17T08:35:04;25.10;99.90
780;DHT22;373;49.342;8.146;2023-08-17T08:37:32;25.70;99.90
780;DHT22;373;49.342;8.146;2023-08-17T08:39:59;26.10;99.90
780;DHT22;373;49.342;8.146;2023-08-17T08:42:26;26.10;1.00
780;DHT22;373;49.342;8.146;2023-08-17T08:44:53;25.60;99.90
780;DHT22;373;49.342;8.146;2023-08-17T08:47:21;25.40;1.00
780;DHT22;373;49.342;8.146;2023-08-17T08:49:57;25.50;99.90
780;DHT22;373;49.342;8.146;2023-08-17T08:52:32;25.60;99.90
780;DHT22;373;49.342;8.146;2023-08-17T08:55:06;26.40;99.90
780;DHT22;373;49.342;8.146;2023-08-17T08:57:36;26.50;99.90
780;DHT22;373;49.342;8.146;2023-08-17T09:00:04;26.20;1.00
780;DHT22;373;49.342;8.146;2023-08-17T09:02:33;26.30;99.90
780;DHT22;373;49.342;8.146;2023-08-17T09:05:04;26.00;1.00
780;DHT22;373;49.342;8.146;2023-08-17T09:07:33;25.60;1.00
780;DHT22;373;49.342;8.146;2023-08-17T09:10:00;26.40;1.00
780;DHT22;373;49.342;8.146;2023-08-17T09:12:29;27.00;1.00
780;DHT22;373;49.342;8.146;2023-08-17T09:14:56;27.10;1.00
780;DHT22;373;49.342;8.146;2023-08-17T09:17:24;26.90;99.90
780;DHT22;373;49.342;8.146;2023-08-17T09:19:51;27.00;99.90
780;DHT22;373;49.342;8.146;2023-08-17T09:22:23;26.90;1.00
780;DHT22;373;49.342;8.146;2023-08-17T09:24:51;27.50;99.90
780;DHT22;373;49.342;8.146;2023-08-17T09:27:18;28.10;1.00
780;DHT22;373;49.342;8.146;2023-08-17T09:29:45;28.10;1.00
780;DHT22;373;49.342;8.146;2023-08-17T09:32:14;28.50;1.00
780;DHT22;373;49.342;8.146;2023-08-17T09:34:43;28.20;1.00
780;DHT22;373;49.342;8.146;2023-08-17T09:37:12;28.20;1.00
780;DHT22;373;49.342;8.146;2023-08-17T09:39:40;28.20;1.00
780;DHT22;373;49.342;8.146;2023-08-17T09:42:07;28.00;1.00
780;DHT22;373;49.342;8.146;2023-08-17T09:44:34;27.90;28.10
780;DHT22;373;49.342;8.146;2023-08-17T09:47:01;28.30;1.00
780;DHT22;373;49.342;8.146;2023-08-17T09:49:31;27.80;1.00
780;DHT22;373;49.342;8.146;2023-08-17T09:51:59;27.60;1.00
780;DHT22;373;49.342;8.146;2023-08-17T09:54:30;27.40;85.90
780;DHT22;373;49.342;8.146;2023-08-17T09:56:59;27.20;50.70
780;DHT22;373;49.342;8.146;2023-08-17T09:59:27;27.70;83.50
780;DHT22;373;49.342;8.146;2023-08-17T10:01:54;28.10;1.00
780;DHT22;373;49.342;8.146;2023-08-17T10:04:23;28.30;1.00
780;DHT22;373;49.342;8.146;2023-08-17T10:06:53;28.10;1.00
780;DHT22;373;49.342;8.146;2023-08-17T10:09:24;27.90;1.00
780;DHT22;373;49.342;8.146;2023-08-17T10:11:52;26.90;1.00
780;DHT22;373;49.342;8.146;2023-08-17T10:14:28;27.60;1.00
780;DHT22;373;49.342;8.146;2023-08-17T10:17:00;28.20;99.90
780;DHT22;373;49.342;8.146;2023-08-17T10:19:33;28.50;1.00
780;DHT22;373;49.342;8.146;2023-08-17T10:22:09;28.80;1.00
780;DHT22;373;49.342;8.146;2023-08-17T10:24:39;29.40;1.00
780;DHT22;373;49.342;8.146;2023-08-17T10:27:07;28.90;1.00
780;DHT22;373;49.342;8.146;2023-08-17T10:29:38;28.90;1.00
780;DHT22;373;49.342;8.146;2023-08-17T10:32:07;28.90;1.00
780;DHT22;373;49.342;8.146;2023-08-17T10:34:34;28.10;1.00
780;DHT22;373;49.342;8.146;2023-08-17T10:37:02;28.00;1.00
780;DHT22;373;49.342;8.146;2023-08-17T10:39:30;28.30;1.00
780;DHT22;373;49.342;8.146;2023-08-17T10:41:58;28.50;1.00
780;DHT22;373;49.342;8.146;2023-08-17T10:44:40;28.60;1.00
780;DHT22;373;49.342;8.146;2023-08-17T10:47:21;28.40;1.00
780;DHT22;373;49.342;8.146;2023-08-17T10:49:49;27.90;99.90
780;DHT22;373;49.342;8.146;2023-08-17T10:52:25;27.60;99.90
780;DHT22;373;49.342;8.146;2023-08-17T10:54:53;27.00;62.50
780;DHT22;373;49.342;8.146;2023-08-17T10:57:34;27.00;1.00
780;DHT22;373;49.342;8.146;2023-08-17T11:00:07;27.60;1.00
780;DHT22;373;49.342;8.146;2023-08-17T11:02:37;27.70;1.00
780;DHT22;373;49.342;8.146;2023-08-17T11:05:05;27.60;1.00
780;DHT22;373;49.342;8.146;2023-08-17T11:07:39;27.40;9.30
780;DHT22;373;49.342;8.146;2023-08-17T11:10:27;27.40;99.90
780;DHT22;373;49.342;8.146;2023-08-17T11:12:55;27.70;1.00
780;DHT22;373;49.342;8.146;2023-08-17T11:15:35;28.40;99.90
780;DHT22;373;49.342;8.146;2023-08-17T11:18:06;28.60;99.90
780;DHT22;373;49.342;8.146;2023-08-17T11:20:33;28.60;73.10
780;DHT22;373;49.342;8.146;2023-08-17T11:23:01;28.50;1.00
780;DHT22;373;49.342;8.146;2023-08-17T11:25:28;28.40;12.10
780;DHT22;373;49.342;8.146;2023-08-17T11:27:55;28.10;99.90
780;DHT22;373;49.342;8.146;2023-08-17T11:30:22;28.30;99.90
780;DHT22;373;49.342;8.146;2023-08-17T11:32:53;28.50;99.90
780;DHT22;373;49.342;8.146;2023-08-17T11:35:20;28.80;66.70
780;DHT22;373;49.342;8.146;2023-08-17T11:37:48;28.70;4.30
780;DHT22;373;49.342;8.146;2023-08-17T11:40:16;28.80;45.40
780;DHT22;373;49.342;8.146;2023-08-17T11:42:45;29.20;1.00
780;DHT22;373;49.342;8.146;2023-08-17T11:45:13;29.80;1.00
780;DHT22;373;49.342;8.146;2023-08-17T11:47:40;30.20;1.00
780;DHT22;373;49.342;8.146;2023-08-17T11:50:11;30.40;1.00
780;DHT22;373;49.342;8.146;2023-08-17T11:52:39;30.10;1.00
780;DHT22;373;49.342;8.146;2023-08-17T11:55:08;29.70;1.00
780;DHT22;373;49.342;8.146;2023-08-17T11:57:36;30.00;1.00
780;DHT22;373;49.342;8.146;2023-08-17T12:00:05;29.90;1.00
780;DHT22;373;49.342;8.146;2023-08-17T12:02:32;29.80;1.00
780;DHT22;373;49.342;8.146;2023-08-17T12:05:04;30.10;1.00
780;DHT22;373;49.342;8.146;2023-08-17T12:07:33;30.10;99.90
780;DHT22;373;49.342;8.146;2023-08-17T13:05:07;26.00;1.00
780;DHT22;373;49.342;8.146;2023-08-17T13:07:40;27.00;1.00
780;DHT22;373;49.342;8.146;2023-08-17T13:10:38;27.20;99.90
780;DHT22;373;49.342;8.146;2023-08-17T13:18:29;27.20;99.90
780;DHT22;373;49.342;8.146;2023-08-17T13:52:10;28.00;1.00
780;DHT22;373;49.342;8.146;2023-08-17T13:54:37;27.90;1.00
780;DHT22;373;49.342;8.146;2023-08-17T13:57:05;28.00;9.10
780;DHT22;373;49.342;8.146;2023-08-17T13:59:32;28.10;99.90
780;DHT22;373;49.342;8.146;2023-08-17T14:01:59;28.00;1.00
780;DHT22;373;49.342;8.146;2023-08-17T14:04:26;28.10;1.00
780;DHT22;373;49.342;8.146;2023-08-17T14:06:53;28.60;63.40
780;DHT22;373;49.342;8.146;2023-08-17T14:09:21;28.40;1.00
780;DHT22;373;49.342;8.146;2023-08-17T14:11:48;28.40;1.00
780;DHT22;373;49.342;8.146;2023-08-17T14:14:15;28.80;1.00
780;DHT22;373;49.342;8.146;2023-08-17T14:16:42;28.90;65.90
780;DHT22;373;49.342;8.146;2023-08-17T14:19:10;28.70;1.00
780;DHT22;373;49.342;8.146;2023-08-17T14:21:37;28.40;1.00
780;DHT22;373;49.342;8.146;2023-08-17T14:24:04;28.90;99.90
780;DHT22;373;49.342;8.146;2023-08-17T14:26:34;28.90;1.00
780;DHT22;373;49.342;8.146;2023-08-17T14:29:01;28.70;50.00
780;DHT22;373;49.342;8.146;2023-08-17T14:31:28;28.60;99.90
780;DHT22;373;49.342;8.146;2023-08-17T14:33:55;28.50;99.90
780;DHT22;373;49.342;8.146;2023-08-17T14:36:22;28.80;99.90
780;DHT22;373;49.342;8.146;2023-08-17T14:38:49;28.80;61.90
780;DHT22;373;49.342;8.146;2023-08-17T14:41:16;28.20;1.00
780;DHT22;373;49.342;8.146;2023-08-17T14:43:45;28.20;77.80
780;DHT22;373;49.342;8.146;2023-08-17T14:46:12;28.50;1.00
780;DHT22;373;49.342;8.146;2023-08-17T14:48:39;28.50;1.00
780;DHT22;373;49.342;8.146;2023-08-17T14:51:06;28.60;1.00
780;DHT22;373;49.342;8.146;2023-08-17T14:53:33;29.00;1.00
780;DHT22;373;49.342;8.146;2023-08-17T14:56:00;29.50;99.90
780;DHT22;373;49.342;8.146;2023-08-17T14:58:27;29.40;99.90
780;DHT22;373;49.342;8.146;2023-08-17T15:00:56;28.90;1.00
780;DHT22;373;49.342;8.146;2023-08-17T15:03:23;29.10;99.90
780;DHT22;373;49.342;8.146;2023-08-17T15:05:50;28.80;99.90
780;DHT22;373;49.342;8.146;2023-08-17T15:08:17;28.90;99.90
780;DHT22;373;49.342;8.146;2023-08-17T15:10:46;29.10;27.70
780;DHT22;373;49.342;8.146;2023-08-17T15:13:13;29.20;45.00
780;DHT22;373;49.342;8.146;2023-08-17T15:15:41;28.90;99.90
780;DHT22;373;49.342;8.146;2023-08-17T15:18:10;29.40;99.90
780;DHT22;373;49.342;8.146;2023-08-17T15:20:37;29.30;3.50
780;DHT22;373;49.342;8.146;2023-08-17T15:23:04;28.80;99.90
780;DHT22;373;49.342;8.146;2023-08-17T15:25:31;28.60;99.90
780;DHT22;373;49.342;8.146;2023-08-17T15:27:58;28.90;99.90
780;DHT22;373;49.342;8.146;2023-08-17T15:30:25;29.10;99.90
780;DHT22;373;49.342;8.146;2023-08-17T15:32:52;29.00;99.90
780;DHT22;373;49.342;8.146;2023-08-17T15:35:20;29.10;99.90
780;DHT22;373;49.342;8.146;2023-08-17T15:37:47;29.20;99.90
780;DHT22;373;49.342;8.146;2023-08-17T15:40:14;29.20;99.90
780;DHT22;373;49.342;8.146;2023-08-17T15:42:41;29.10;99.90
780;DHT22;373;49.342;8.146;2023-08-17T15:45:09;29.20;84.70
780;DHT22;373;49.342;8.146;2023-08-17T15:47:36;29.00;30.20
780;DHT22;373;49.342;8.146;2023-08-17T15:50:04;28.60;99.90
780;DHT22;373;49.342;8.146;2023-08-17T15:52:32;28.50;1.00
780;DHT22;373;49.342;8.146;2023-08-17T15:54:59;29.00;99.90
780;DHT22;373;49.342;8.146;2023-08-17T15:57:26;29.10;99.90
780;DHT22;373;49.342;8.146;2023-08-17T15:59:53;29.30;99.90
780;DHT22;373;49.342;8.146;2023-08-17T16:02:20;29.20;44.00
780;DHT22;373;49.342;8.146;2023-08-17T16:04:47;28.70;99.90
780;DHT22;373;49.342;8.146;2023-08-17T16:07:14;28.30;1.00
780;DHT22;373;49.342;8.146;2023-08-17T16:09:43;27.90;1.00
780;DHT22;373;49.342;8.146;2023-08-17T16:12:10;27.90;1.00
780;DHT22;373;49.342;8.146;2023-08-17T16:14:36;28.00;1.00
780;DHT22;373;49.342;8.146;2023-08-17T16:17:04;28.10;1.00
780;DHT22;373;49.342;8.146;2023-08-17T16:19:31;28.30;99.90
780;DHT22;373;49.342;8.146;2023-08-17T16:21:58;28.50;1.00
780;DHT22;373;49.342;8.146;2023-08-17T16:24:25;28.50;1.00
780;DHT22;373;49.342;8.146;2023-08-17T16:26:55;28.60;1.00
780;DHT22;373;49.342;8.146;2023-08-17T16:29:22;28.70;99.90
780;DHT22;373;49.342;8.146;2023-08-17T16:31:59;28.60;1.00
780;DHT22;373;49.342;8.146;2023-08-17T16:34:28;28.60;59.50
780;DHT22;373;49.342;8.146;2023-08-17T16:36:55;28.50;99.90
780;DHT22;373;49.342;8.146;2023-08-17T16:39:22;28.40;99.90
780;DHT22;373;49.342;8.146;2023-08-17T16:41:49;28.50;38.90
780;DHT22;373;49.342;8.146;2023-08-17T16:44:19;28.30;99.90
780;DHT22;373;49.342;8.146;2023-08-17T16:46:46;28.40;99.90
780;DHT22;373;49.342;8.146;2023-08-17T16:49:13;28.10;99.90
780;DHT22;373;49.342;8.146;2023-08-17T16:51:41;27.90;1.00
780;DHT22;373;49.342;8.146;2023-08-17T16:54:08;27.70;99.90
780;DHT22;373;49.342;8.146;2023-08-17T16:56:35;27.80;99.90
780;DHT22;373;49.342;8.146;2023-08-17T16:59:04;27.70;1.00
780;DHT22;373;49.342;8.146;2023-08-17T17:01:33;27.60;1.00
780;DHT22;373;49.342;8.146;2023-08-17T17:04:00;27.70;1.00
780;DHT22;373;49.342;8.146;2023-08-17T17:06:27;27.60;99.90
780;DHT22;373;49.342;8.146;2023-08-17T17:08:54;27.70;99.90
780;DHT22;373;49.342;8.146;2023-08-17T17:11:21;27.70;99.90
780;DHT22;373;49.342;8.146;2023-08-17T17:13:48;27.60;1.00
780;DHT22;373;49.342;8.146;2023-08-17T17:16:15;27.40;1.00
780;DHT22;373;49.342;8.146;2023-08-17T17:18:46;27.50;1.00
780;DHT22;373;49.342;8.146;2023-08-17T17:21:13;27.50;99.90
780;DHT22;373;49.342;8.146;2023-08-17T17:23:40;27.30;1.00
780;DHT22;373;49.342;8.146;2023-08-17T17:26:08;27.20;1.00
780;DHT22;373;49.342;8.146;2023-08-17T17:28:36;27.40;1.00
780;DHT22;373;49.342;8.146;2023-08-17T17:31:04;27.20;99.90
780;DHT22;373;49.342;8.146;2023-08-17T17:33:32;27.00;99.90
780;DHT22;373;49.342;8.146;2023-08-17T17:36:00;27.00;1.00
780;DHT22;373;49.342;8.146;2023-08-17T17:38:27;27.20;99.90
780;DHT22;373;49.342;8.146;2023-08-17T17:40:55;27.20;1.00
780;DHT22;373;49.342;8.146;2023-08-17T17:43:22;27.20;24.60
780;DHT22;373;49.342;8.146;2023-08-17T17:45:50;27.20;99.90
780;DHT22;373;49.342;8.146;2023-08-17T17:48:18;26.90;1.00
780;DHT22;373;49.342;8.146;2023-08-17T17:50:45;26.80;1.00
780;DHT22;373;49.342;8.146;2023-08-17T17:53:14;26.80;99.90
780;DHT22;373;49.342;8.146;2023-08-17T17:55:41;26.80;1.00
780;DHT22;373;49.342;8.146;2023-08-17T17:58:08;26.70;99.90
780;DHT22;373;49.342;8.146;2023-08-17T18:00:35;26.70;99.90
780;DHT22;373;49.342;8.146;2023-08-17T18:03:08;26.90;99.90
780;DHT22;373;49.342;8.146;2023-08-17T18:05:36;27.00;94.70
780;DHT22;373;49.342;8.146;2023-08-17T18:08:03;27.00;1.00
780;DHT22;373;49.342;8.146;2023-08-17T18:10:32;27.00;1.00
780;DHT22;373;49.342;8.146;2023-08-17T18:12:59;27.30;1.00
780;DHT22;373;49.342;8.146;2023-08-17T18:15:26;27.40;99.90
780;DHT22;373;49.342;8.146;2023-08-17T18:17:53;27.50;99.90
780;DHT22;373;49.342;8.146;2023-08-17T18:20:20;27.60;7.60
780;DHT22;373;49.342;8.146;2023-08-17T18:22:47;27.70;18.40